Time;durP1;ratioP1;P1;durP2;ratioP2;P2;SDS_P1;SDS_P2;PMS_P1;PMS_P2;Temp;Humidity;BMP_temperature;BMP_pressure;BME280_temperature;BME280_humidity;BME280_pressure;Samples;Min_cycle;Max_cycle;Signal;HPM_P1;HPM_P2
2023/01/21 00:01:06;;;;;;;13.07;3.55;;;3.40;99.90;;;;;;4987677;28;20046;-70
2023/01/21 00:03:33;;;;;;;15.95;3.17;;;3.40;99.90;;;;;;4999848;28;20056;-69
2023/01/21 00:06:03;;;;;;;8.85;3.80;;;3.40;99.90;;;;;;5003979;28;20688;-71
2023/01/21 00:08:30;;;;;;;8.98;3.25;;;3.40;99.90;;;;;;4996779;28;20770;-70
2023/01/21 00:10:56;;;;;;;12.13;4.90;;;3.40;99.90;;;;;;4987406;28;20490;-69
2023/01/21 00:13:23;;;;;;;8.82;3.30;;;3.40;99.90;;;;;;4992075;28;20049;-71
2023/01/21 00:15:56;;;;;;;14.82;3.70;;;3.40;99.90;;;;;;5005496;28;20066;-70
2023/01/21 00:18:22;;;;;;;14.70;3.72;;;3.40;99.90;;;;;;4991595;28;20062;-69
2023/01/21 00:20:49;;;;;;;10.02;3.72;;;3.40;99.90;;;;;;5005849;28;20531;-70
2023/01/21 00:23:16;;;;;;;9.93;3.15;;;3.40;99.90;;;;;;4992700;28;20056;-70
2023/01/21 00:25:42;;;;;;;6.15;3.33;;;3.40;99.90;;;;;;5005775;28;20151;-71
2023/01/21 00:28:09;;;;;;;10.05;3.38;;;3.40;99.90;;;;;;4993942;28;20530;-70
2023/01/21 00:30:38;;;;;;;15.88;3.75;;;3.40;99.90;;;;;;5003393;28;20378;-70
2023/01/21 00:33:05;;;;;;;9.77;3.17;;;3.40;99.90;;;;;;4995606;28;20177;-71
2023/01/21 00:35:31;;;;;;;10.75;3.10;;;3.30;99.90;;;;;;5004863;28;20060;-71
2023/01/21 00:37:58;;;;;;;13.93;3.67;;;3.40;99.90;;;;;;5003230;28;20149;-71
2023/01/21 00:40:25;;;;;;;9.27;3.90;;;3.30;99.90;;;;;;4994325;28;20502;-70
2023/01/21 00:42:52;;;;;;;9.82;2.85;;;3.40;99.90;;;;;;4999281;28;20037;-69
2023/01/21 00:45:19;;;;;;;15.75;4.00;;;3.30;99.90;;;;;;4999191;28;20061;-69
2023/01/21 00:47:46;;;;;;;8.75;3.08;;;3.30;99.90;;;;;;5005059;28;20128;-69
2023/01/21 00:50:12;;;;;;;10.55;3.08;;;3.50;99.90;;;;;;4996136;28;20068;-70
2023/01/21 00:52:39;;;;;;;11.27;4.13;;;3.40;99.90;;;;;;4989351;28;20046;-70
2023/01/21 00:55:06;;;;;;;8.77;3.47;;;3.30;99.90;;;;;;4997723;28;20050;-70
2023/01/21 00:57:33;;;;;;;17.70;3.58;;;3.40;99.90;;;;;;5000228;28;20085;-70
2023/01/21 01:00:00;;;;;;;11.23;3.13;;;3.40;99.90;;;;;;4995169;28;20052;-70
2023/01/21 01:02:26;;;;;;;12.35;3.72;;;3.40;99.90;;;;;;5007563;28;20409;-70
2023/01/21 01:04:53;;;;;;;9.52;3.03;;;3.40;99.90;;;;;;5008383;28;20058;-70
2023/01/21 01:07:20;;;;;;;13.48;3.80;;;3.50;99.90;;;;;;5005764;28;20813;-70
2023/01/21 01:09:47;;;;;;;13.80;3.40;;;3.40;99.90;;;;;;4992936;28;20054;-70
2023/01/21 01:12:13;;;;;;;15.57;4.20;;;3.40;99.90;;;;;;5005635;28;20140;-70
2023/01/21 01:14:40;;;;;;;11.02;3.55;;;3.40;99.90;;;;;;5003248;28;20056;-70
2023/01/21 01:17:07;;;;;;;12.50;3.63;;;3.40;99.90;;;;;;5005445;28;20046;-69
2023/01/21 01:19:34;;;;;;;12.15;3.50;;;3.40;99.90;;;;;;4995480;28;20042;-70
2023/01/21 01:22:00;;;;;;;14.25;4.15;;;3.40;99.90;;;;;;5003193;28;20057;-70
2023/01/21 01:24:27;;;;;;;9.65;3.60;;;3.50;99.90;;;;;;5001595;28;20157;-70
2023/01/21 01:26:54;;;;;;;7.32;3.60;;;3.40;99.90;;;;;;5000924;28;20064;-70
2023/01/21 01:29:21;;;;;;;11.13;4.25;;;3.40;99.90;;;;;;5003469;28;20060;-70
2023/01/21 01:31:47;;;;;;;10.70;3.10;;;3.40;99.90;;;;;;4998735;28;20054;-71
2023/01/21 01:34:14;;;;;;;14.38;3.83;;;3.40;99.90;;;;;;5008181;28;20092;-70
2023/01/21 01:36:41;;;;;;;13.82;4.05;;;3.40;99.90;;;;;;5000219;28;20141;-69
2023/01/21 01:39:07;;;;;;;10.95;3.97;;;3.40;99.90;;;;;;5009075;28;20042;-70
2023/01/21 01:41:34;;;;;;;13.32;4.85;;;3.40;99.90;;;;;;5001921;28;20440;-70
2023/01/21 01:44:05;;;;;;;15.57;7.07;;;3.40;99.90;;;;;;5009580;28;20081;-70
2023/01/21 01:46:33;;;;;;;15.05;3.78;;;3.40;99.90;;;;;;5000803;28;20077;-69
2023/01/21 01:49:16;;;;;;;12.75;5.25;;;3.30;99.90;;;;;;5010800;28;20049;-70
2023/01/21 01:51:50;;;;;;;8.57;3.60;;;3.30;99.90;;;;;;5008921;28;20466;-69
2023/01/21 01:54:19;;;;;;;11.18;3.53;;;3.30;99.90;;;;;;5009250;28;20050;-69
2023/01/21 01:56:46;;;;;;;12.63;4.30;;;3.30;99.90;;;;;;4997196;28;20058;-69
2023/01/21 01:59:13;;;;;;;13.32;4.72;;;3.20;99.90;;;;;;5009004;28;20137;-70
2023/01/21 02:01:40;;;;;;;7.80;3.78;;;3.30;99.90;;;;;;5013095;28;20081;-69
2023/01/21 02:04:08;;;;;;;10.95;4.20;;;3.30;99.90;;;;;;5010551;28;20038;-69
2023/01/21 02:06:35;;;;;;;12.05;4.10;;;3.30;99.90;;;;;;4997689;28;20056;-70
2023/01/21 02:09:02;;;;;;;13.18;4.63;;;3.20;99.90;;;;;;4992692;28;20485;-70
2023/01/21 02:11:29;;;;;;;11.98;3.92;;;3.20;99.90;;;;;;5000687;28;20490;-70
2023/01/21 02:13:57;;;;;;;8.88;4.00;;;3.10;99.90;;;;;;5007672;28;20054;-70
2023/01/21 02:16:59;;;;;;;12.35;4.60;;;3.10;99.90;;;;;;5004155;28;20093;-70
2023/01/21 02:19:44;;;;;;;7.60;3.95;;;3.10;99.90;;;;;;4959763;28;20129;-72
2023/01/21 02:22:17;;;;;;;12.63;3.78;;;3.00;99.90;;;;;;4997650;28;20047;-69
2023/01/21 02:25:05;;;;;;;11.40;4.15;;;3.00;99.90;;;;;;4993638;28;20050;-71
2023/01/21 02:27:47;;;;;;;9.77;3.60;;;3.00;99.90;;;;;;4999257;28;20386;-70
2023/01/21 02:30:29;;;;;;;7.82;3.92;;;3.00;99.90;;;;;;5013145;28;20493;-70
2023/01/21 02:33:23;;;;;;;7.50;4.15;;;2.90;99.90;;;;;;4999425;28;20096;-70
2023/01/21 02:36:28;;;;;;;8.98;3.10;;;2.80;99.90;;;;;;4664507;28;10000835;-70
2023/01/21 02:39:13;;;;;;;11.02;4.10;;;2.80;99.90;;;;;;5000910;28;20050;-70
2023/01/21 02:42:10;;;;;;;10.18;3.92;;;2.70;99.90;;;;;;4994757;28;20046;-71
2023/01/21 02:44:53;;;;;;;9.38;3.83;;;2.70;99.90;;;;;;4995962;28;20054;-70
2023/01/21 02:47:37;;;;;;;15.55;4.28;;;2.60;99.90;;;;;;4982661;28;20081;-70
2023/01/21 02:50:06;;;;;;;11.35;4.15;;;2.50;99.90;;;;;;5009073;28;20056;-71
2023/01/21 02:52:32;;;;;;;9.25;4.63;;;2.50;99.90;;;;;;5005718;28;20048;-70
2023/01/21 02:55:00;;;;;;;10.30;4.38;;;2.40;99.90;;;;;;4995847;28;20105;-69
2023/01/21 02:57:47;;;;;;;12.07;4.63;;;2.40;99.90;;;;;;4994670;28;20049;-70
2023/01/21 03:00:28;;;;;;;7.72;4.22;;;2.30;99.90;;;;;;5010181;28;20046;-69
2023/01/21 03:03:13;;;;;;;7.13;3.72;;;2.20;99.90;;;;;;5004142;28;20081;-70
2023/01/21 03:05:47;;;;;;;12.77;3.72;;;2.10;99.90;;;;;;5010577;28;20080;-68
2023/01/21 03:08:18;;;;;;;10.45;3.78;;;2.10;99.90;;;;;;5009409;28;20136;-69
2023/01/21 03:10:51;;;;;;;10.38;4.70;;;2.00;99.90;;;;;;5007251;28;20050;-70
2023/01/21 03:18:56;;;;;;;12.65;4.97;;;1.80;99.90;;;;;;5000901;28;20054;-70
2023/01/21 03:21:25;;;;;;;15.30;5.30;;;1.70;99.90;;;;;;4991693;28;20053;-69
2023/01/21 03:23:52;;;;;;;11.52;4.20;;;1.70;99.90;;;;;;5003422;28;20053;-68
2023/01/21 03:26:25;;;;;;;9.18;4.05;;;1.60;99.90;;;;;;4992125;28;20540;-68
2023/01/21 03:28:53;;;;;;;8.97;3.93;;;1.60;99.90;;;;;;4996113;28;20080;-68
2023/01/21 03:31:22;;;;;;;12.60;3.92;;;1.50;99.90;;;;;;4997472;28;20090;-69
2023/01/21 03:33:50;;;;;;;13.15;4.88;;;1.50;99.90;;;;;;5005188;28;20061;-68
2023/01/21 03:36:25;;;;;;;12.15;4.13;;;1.50;99.90;;;;;;5010175;28;20046;-68
2023/01/21 03:38:52;;;;;;;12.18;4.35;;;1.40;99.90;;;;;;5003695;28;20038;-69
2023/01/21 03:41:21;;;;;;;7.93;3.95;;;1.40;99.90;;;;;;4995531;28;20129;-68
2023/01/21 03:43:48;;;;;;;13.23;4.70;;;1.30;99.90;;;;;;4975228;28;20046;-69
2023/01/21 03:46:20;;;;;;;11.82;4.20;;;1.20;99.90;;;;;;5006137;28;20164;-68
2023/01/21 03:49:02;;;;;;;8.25;4.28;;;1.20;99.90;;;;;;4993295;28;20678;-68
2023/01/21 03:51:41;;;;;;;10.25;5.65;;;1.10;99.90;;;;;;4999442;28;20056;-68
2023/01/21 03:54:07;;;;;;;12.20;4.10;;;1.10;99.90;;;;;;4994350;28;20504;-69
2023/01/21 03:56:34;;;;;;;12.57;4.82;;;1.10;99.90;;;;;;4997498;28;20056;-68
2023/01/21 03:59:01;;;;;;;13.30;3.78;;;1.10;99.90;;;;;;4991303;28;20042;-68
2023/01/21 04:01:28;;;;;;;6.53;3.65;;;1.10;99.90;;;;;;5018677;28;20046;-69
2023/01/21 04:03:54;;;;;;;8.98;4.47;;;1.10;99.90;;;;;;5006147;28;20504;-69
2023/01/21 04:06:21;;;;;;;14.77;5.25;;;1.10;99.90;;;;;;5008318;28;20050;-69
2023/01/21 04:08:48;;;;;;;8.35;4.90;;;1.10;99.90;;;;;;5008212;28;20060;-69
2023/01/21 04:11:15;;;;;;;12.32;4.78;;;1.00;99.90;;;;;;5001372;28;20490;-69
2023/01/21 04:13:42;;;;;;;13.35;4.70;;;1.00;99.90;;;;;;4989074;28;20461;-69
2023/01/21 04:16:08;;;;;;;11.40;4.80;;;1.00;99.90;;;;;;5001426;28;20050;-69
2023/01/21 04:18:35;;;;;;;8.70;4.75;;;0.90;99.90;;;;;;4987830;28;20046;-69
2023/01/21 04:21:02;;;;;;;14.98;4.35;;;0.90;99.90;;;;;;5000698;28;20156;-69
2023/01/21 04:23:29;;;;;;;12.93;4.97;;;0.80;99.90;;;;;;4988716;28;20042;-69
2023/01/21 04:25:56;;;;;;;10.00;4.15;;;0.80;99.90;;;;;;4999654;28;20050;-70
2023/01/21 04:28:22;;;;;;;13.70;4.70;;;0.80;99.90;;;;;;5007179;28;20048;-69
2023/01/21 04:30:49;;;;;;;9.27;4.60;;;0.70;99.90;;;;;;5001308;28;20133;-68
2023/01/21 04:33:16;;;;;;;9.93;4.00;;;0.70;99.90;;;;;;5003023;28;20056;-69
2023/01/21 04:35:43;;;;;;;9.57;4.35;;;0.60;99.90;;;;;;5003545;28;20053;-69
2023/01/21 04:38:10;;;;;;;7.68;4.35;;;0.60;99.90;;;;;;5016136;28;20042;-69
2023/01/21 04:40:37;;;;;;;14.05;5.22;;;0.50;99.90;;;;;;5005639;28;20137;-69
2023/01/21 04:43:04;;;;;;;8.80;4.45;;;0.50;99.90;;;;;;4998656;28;20085;-69
2023/01/21 04:45:30;;;;;;;10.10;4.22;;;0.50;99.90;;;;;;5006679;28;20145;-69
2023/01/21 04:47:57;;;;;;;8.38;4.07;;;0.50;99.90;;;;;;5007661;28;20052;-69
2023/01/21 04:50:24;;;;;;;9.57;4.72;;;0.40;99.90;;;;;;5007533;28;20137;-69
2023/01/21 04:52:50;;;;;;;8.77;4.20;;;0.40;99.90;;;;;;5006440;28;20053;-68
2023/01/21 04:55:17;;;;;;;10.77;4.22;;;0.40;99.90;;;;;;5023512;28;20104;-69
2023/01/21 04:57:44;;;;;;;12.50;4.22;;;0.40;99.90;;;;;;5003460;28;20047;-69
2023/01/21 05:00:11;;;;;;;8.35;3.80;;;0.40;99.90;;;;;;4988673;28;20061;-69
2023/01/21 05:02:38;;;;;;;9.70;4.32;;;0.30;99.90;;;;;;5001054;28;20046;-68
2023/01/21 05:05:05;;;;;;;12.40;6.63;;;0.30;99.90;;;;;;5008435;28;20042;-69
2023/01/21 05:07:32;;;;;;;6.35;4.05;;;0.30;99.90;;;;;;5003801;28;20053;-68
2023/01/21 05:09:58;;;;;;;10.00;3.88;;;0.30;99.90;;;;;;4993822;28;20050;-68
2023/01/21 05:12:26;;;;;;;9.85;4.53;;;0.20;99.90;;;;;;5003260;28;20045;-68
2023/01/21 05:14:53;;;;;;;10.23;4.88;;;0.20;99.90;;;;;;5011837;28;20052;-67
2023/01/21 05:17:20;;;;;;;7.63;3.42;;;0.10;99.90;;;;;;5004895;28;20050;-68
2023/01/21 05:19:47;;;;;;;10.25;4.10;;;0.10;99.90;;;;;;5006608;28;20050;-69
2023/01/21 05:22:13;;;;;;;8.00;4.28;;;0.10;99.90;;;;;;5010290;28;20050;-69
2023/01/21 05:24:40;;;;;;;9.73;4.97;;;0.10;99.90;;;;;;5011802;28;20061;-68
2023/01/21 05:27:07;;;;;;;7.40;4.22;;;0.00;99.90;;;;;;5024243;28;20057;-69
2023/01/21 05:29:34;;;;;;;9.93;4.45;;;0.10;99.90;;;;;;5001444;28;20060;-68
2023/01/21 05:32:00;;;;;;;11.27;4.72;;;0.00;99.90;;;;;;5009991;28;20064;-67
2023/01/21 05:34:27;;;;;;;10.75;6.05;;;0.00;99.90;;;;;;5011809;28;20132;-69
2023/01/21 05:36:54;;;;;;;10.63;5.45;;;-0.10;99.90;;;;;;5025335;28;20407;-70
2023/01/21 05:39:21;;;;;;;10.88;4.40;;;-0.20;99.90;;;;;;5011302;28;20049;-69
2023/01/21 05:41:47;;;;;;;9.77;4.43;;;-0.10;99.90;;;;;;5011613;28;20050;-69
2023/01/21 05:44:14;;;;;;;9.00;4.32;;;-0.10;99.90;;;;;;5004137;28;20049;-70
2023/01/21 05:46:43;;;;;;;7.25;4.30;;;-0.10;99.90;;;;;;4991943;28;20093;-70
2023/01/21 05:49:10;;;;;;;8.98;4.43;;;-0.10;99.90;;;;;;5007050;28;20483;-69
2023/01/21 05:51:36;;;;;;;8.20;4.28;;;-0.10;99.90;;;;;;5011213;28;20136;-69
2023/01/21 05:54:03;;;;;;;8.20;4.30;;;-0.10;99.90;;;;;;4999891;28;20056;-69
2023/01/21 05:56:30;;;;;;;14.40;3.67;;;-0.20;99.90;;;;;;5009876;28;20046;-69
2023/01/21 05:58:56;;;;;;;9.70;4.50;;;-0.20;99.90;;;;;;5001974;28;20057;-69
2023/01/21 06:01:23;;;;;;;9.90;4.47;;;-0.20;99.90;;;;;;5007548;28;20053;-69
2023/01/21 06:03:50;;;;;;;11.27;5.10;;;-0.20;99.90;;;;;;5006312;28;20057;-69
2023/01/21 06:06:17;;;;;;;13.43;5.50;;;-0.20;99.90;;;;;;5011297;28;20116;-69
2023/01/21 06:08:44;;;;;;;9.48;5.05;;;-0.20;99.90;;;;;;5006310;28;20050;-69
2023/01/21 06:11:10;;;;;;;11.05;4.20;;;-0.10;99.90;;;;;;4999535;28;20054;-68
2023/01/21 06:13:37;;;;;;;13.02;5.25;;;-0.10;99.90;;;;;;5008538;28;20050;-69
2023/01/21 06:16:04;;;;;;;17.05;5.28;;;-0.40;99.90;;;;;;5000277;28;20509;-69
2023/01/21 06:18:31;;;;;;;13.18;4.95;;;-0.10;99.90;;;;;;5008818;28;20047;-68
2023/01/21 06:20:59;;;;;;;19.63;5.60;;;-0.10;99.90;;;;;;4998687;28;20106;-69
2023/01/21 06:23:25;;;;;;;12.75;5.13;;;-0.10;99.90;;;;;;5009417;28;20253;-69
2023/01/21 06:25:52;;;;;;;11.65;5.22;;;-0.10;99.90;;;;;;4999499;28;20161;-69
2023/01/21 06:28:19;;;;;;;11.35;4.95;;;0.00;99.90;;;;;;5010472;28;20050;-69
2023/01/21 06:30:46;;;;;;;8.73;5.18;;;0.10;99.90;;;;;;5003635;28;20054;-69
2023/01/21 06:33:13;;;;;;;13.02;5.47;;;0.20;99.90;;;;;;5010123;28;20052;-69
2023/01/21 06:35:39;;;;;;;10.85;5.68;;;0.20;99.90;;;;;;5008450;28;20066;-69
2023/01/21 06:38:06;;;;;;;10.10;4.93;;;0.20;99.90;;;;;;5025146;28;20501;-69
2023/01/21 06:40:33;;;;;;;15.25;5.70;;;0.20;99.90;;;;;;5007997;28;20052;-70
2023/01/21 06:42:59;;;;;;;14.57;5.38;;;0.20;99.90;;;;;;4992432;28;20076;-69
2023/01/21 06:45:27;;;;;;;14.52;5.93;;;0.20;99.90;;;;;;4998613;28;20046;-69
2023/01/21 06:47:53;;;;;;;9.55;5.50;;;0.20;99.90;;;;;;4994800;28;20133;-70
2023/01/21 06:50:20;;;;;;;14.40;6.78;;;0.30;99.90;;;;;;4996286;28;20543;-70
2023/01/21 06:52:47;;;;;;;15.20;7.07;;;0.30;99.90;;;;;;4996787;28;20046;-70
2023/01/21 06:55:14;;;;;;;12.68;5.35;;;0.30;99.90;;;;;;4993806;28;20125;-70
2023/01/21 06:57:41;;;;;;;15.88;5.57;;;0.40;99.90;;;;;;5009481;28;20054;-68
2023/01/21 07:00:09;;;;;;;10.95;6.47;;;0.40;99.90;;;;;;5005384;28;20133;-68
2023/01/21 07:02:36;;;;;;;10.23;5.38;;;0.30;99.90;;;;;;5007681;28;20116;-69
2023/01/21 07:05:03;;;;;;;12.10;5.68;;;0.30;99.90;;;;;;5007296;28;20077;-68
2023/01/21 07:07:30;;;;;;;17.08;6.65;;;0.40;99.90;;;;;;4997433;28;20760;-68
2023/01/21 07:09:57;;;;;;;10.10;4.80;;;0.30;99.90;;;;;;5008871;28;20049;-69
2023/01/21 07:12:24;;;;;;;12.43;6.18;;;0.40;99.90;;;;;;4998593;28;20080;-69
2023/01/21 07:14:51;;;;;;;14.13;6.10;;;0.40;99.90;;;;;;5009897;28;20050;-73
2023/01/21 07:17:18;;;;;;;15.60;5.53;;;0.40;99.90;;;;;;4995083;28;20046;-69
2023/01/21 07:19:44;;;;;;;15.10;6.47;;;0.40;99.90;;;;;;5009606;28;20060;-69
2023/01/21 07:22:11;;;;;;;10.77;5.72;;;0.30;99.90;;;;;;5003440;28;20487;-70
2023/01/21 07:24:38;;;;;;;12.88;6.47;;;0.30;99.90;;;;;;5011552;28;20060;-70
2023/01/21 07:27:05;;;;;;;15.57;6.85;;;0.20;99.90;;;;;;5000589;28;20054;-70
2023/01/21 07:29:32;;;;;;;19.95;7.07;;;0.20;99.90;;;;;;5009902;28;20057;-70
2023/01/21 07:31:58;;;;;;;12.63;6.75;;;0.20;99.90;;;;;;5003178;28;20072;-69
2023/01/21 07:34:25;;;;;;;18.63;7.05;;;0.20;99.90;;;;;;5009577;28;20045;-69
2023/01/21 07:36:52;;;;;;;13.65;6.88;;;0.20;99.90;;;;;;5004416;28;20050;-69
2023/01/21 07:39:19;;;;;;;16.23;6.80;;;0.10;99.90;;;;;;5009157;28;20052;-69
2023/01/21 07:41:45;;;;;;;10.85;5.40;;;0.00;99.90;;;;;;5005283;28;20456;-69
2023/01/21 07:44:12;;;;;;;12.60;5.90;;;0.00;99.90;;;;;;5000468;28;20134;-69
2023/01/21 07:46:39;;;;;;;17.98;6.65;;;0.00;99.90;;;;;;5004835;28;20069;-69
2023/01/21 07:49:06;;;;;;;13.13;5.90;;;-0.10;99.90;;;;;;5008687;28;20049;-69
2023/01/21 07:51:32;;;;;;;12.05;6.28;;;-0.10;99.90;;;;;;5007154;28;20054;-69
2023/01/21 07:53:59;;;;;;;10.50;6.40;;;-0.10;99.90;;;;;;5000392;28;20056;-69
2023/01/21 07:56:26;;;;;;;9.90;5.78;;;-0.10;99.90;;;;;;5006839;28;20050;-69
2023/01/21 07:58:53;;;;;;;12.88;5.95;;;-0.10;99.90;;;;;;5011808;28;20115;-69
2023/01/21 08:01:20;;;;;;;13.52;6.20;;;-0.10;99.90;;;;;;5009071;28;20127;-69
2023/01/21 08:03:50;;;;;;;13.75;7.53;;;-0.20;99.90;;;;;;5007217;28;20077;-69
2023/01/21 08:06:17;;;;;;;18.63;6.78;;;-0.20;99.90;;;;;;5023996;28;20357;-69
2023/01/21 08:08:44;;;;;;;16.88;6.43;;;-0.20;99.90;;;;;;5002771;28;20096;-69
2023/01/21 08:11:11;;;;;;;17.58;8.13;;;-0.30;99.90;;;;;;4989104;28;20085;-69
2023/01/21 08:13:37;;;;;;;20.35;8.60;;;-0.30;99.90;;;;;;4653463;28;9999831;-69
2023/01/21 08:16:05;;;;;;;15.68;8.65;;;-0.30;99.90;;;;;;5005387;28;20132;-68
2023/01/21 08:18:31;;;;;;;23.30;8.68;;;-0.30;99.90;;;;;;4996559;28;20588;-69
2023/01/21 08:20:58;;;;;;;14.57;8.02;;;-0.20;99.90;;;;;;5004988;28;20049;-69
2023/01/21 08:23:26;;;;;;;15.23;8.13;;;-0.20;99.90;;;;;;4999814;28;20153;-69
2023/01/21 08:25:53;;;;;;;14.95;6.68;;;-0.20;99.90;;;;;;4998711;28;20092;-69
2023/01/21 08:28:20;;;;;;;14.50;7.45;;;-0.10;99.90;;;;;;5003316;28;20052;-69
2023/01/21 08:30:47;;;;;;;14.00;7.43;;;-0.20;99.90;;;;;;5005699;28;20057;-69
2023/01/21 08:33:14;;;;;;;13.27;7.70;;;-0.10;99.90;;;;;;5002708;28;20108;-68
2023/01/21 08:35:41;;;;;;;18.50;7.50;;;-0.10;99.90;;;;;;4994260;28;20056;-69
2023/01/21 08:38:07;;;;;;;16.35;8.15;;;-0.10;99.90;;;;;;5002824;28;20049;-72
2023/01/21 08:40:34;;;;;;;14.95;7.60;;;0.00;99.90;;;;;;4994314;28;20048;-72
2023/01/21 08:43:02;;;;;;;22.45;8.43;;;0.00;99.90;;;;;;5003254;28;20050;-72
2023/01/21 08:45:28;;;;;;;15.80;7.97;;;0.00;99.90;;;;;;4976416;28;20121;-72
2023/01/21 08:47:55;;;;;;;18.77;9.70;;;0.00;99.90;;;;;;5004980;28;20054;-72
2023/01/21 08:50:22;;;;;;;18.42;7.45;;;0.00;99.90;;;;;;4992597;28;20188;-72
2023/01/21 08:52:51;;;;;;;13.40;7.75;;;0.00;99.90;;;;;;5000963;28;20064;-72
2023/01/21 08:55:17;;;;;;;17.52;8.32;;;0.00;99.90;;;;;;4995291;28;20127;-71
2023/01/21 08:57:44;;;;;;;20.92;8.13;;;0.10;99.90;;;;;;5004473;28;20068;-72
2023/01/21 09:00:13;;;;;;;14.25;8.20;;;0.00;99.90;;;;;;4976853;28;20077;-72
2023/01/21 09:02:39;;;;;;;23.92;9.32;;;0.10;99.90;;;;;;5002591;28;20413;-71
2023/01/21 09:05:07;;;;;;;14.55;8.50;;;0.00;99.90;;;;;;4998981;28;20042;-71
2023/01/21 09:07:33;;;;;;;17.83;8.23;;;0.10;99.90;;;;;;5004420;28;20053;-71
2023/01/21 09:10:01;;;;;;;13.88;8.35;;;0.10;99.90;;;;;;4995063;28;20548;-71
2023/01/21 09:12:28;;;;;;;22.25;9.15;;;0.10;99.90;;;;;;5004432;28;20057;-72
2023/01/21 09:14:54;;;;;;;17.10;8.18;;;0.10;99.90;;;;;;5000473;28;20057;-72
2023/01/21 09:17:21;;;;;;;17.70;7.28;;;0.20;99.90;;;;;;5004514;28;20465;-71
2023/01/21 09:19:48;;;;;;;20.25;8.85;;;0.20;99.90;;;;;;5000526;28;20100;-71
2023/01/21 09:22:15;;;;;;;16.08;8.40;;;0.30;99.90;;;;;;5005074;28;20137;-69
2023/01/21 09:24:42;;;;;;;19.92;9.27;;;0.30;99.90;;;;;;5002685;28;20062;-71
2023/01/21 09:27:09;;;;;;;18.63;8.60;;;0.40;99.90;;;;;;4999303;28;20050;-71
2023/01/21 09:29:36;;;;;;;17.58;8.52;;;0.40;99.90;;;;;;5003930;28;20053;-72
2023/01/21 09:32:04;;;;;;;16.13;8.48;;;0.40;99.90;;;;;;4993490;28;20737;-72
2023/01/21 09:34:30;;;;;;;18.70;9.75;;;0.50;99.90;;;;;;4983784;28;20050;-72
2023/01/21 09:37:01;;;;;;;24.77;10.85;;;0.50;99.90;;;;;;4991669;28;20111;-73
2023/01/21 09:39:28;;;;;;;25.25;9.82;;;0.60;99.90;;;;;;5004343;28;20145;-72
2023/01/21 09:41:55;;;;;;;15.73;8.13;;;0.70;99.90;;;;;;4992101;28;20076;-73
2023/01/21 09:44:42;;;;;;;20.48;9.65;;;0.80;99.90;;;;;;5004796;28;20046;-73
2023/01/21 09:47:22;;;;;;;17.58;8.65;;;0.90;99.90;;;;;;4998628;28;20050;-73
2023/01/21 09:50:07;;;;;;;17.30;9.45;;;0.90;99.90;;;;;;5002757;28;20075;-73
2023/01/21 09:52:47;;;;;;;23.60;10.18;;;1.00;99.90;;;;;;5002437;28;20050;-71
2023/01/21 09:55:14;;;;;;;23.60;10.52;;;1.00;99.90;;;;;;5007248;28;20137;-73
2023/01/21 09:58:10;;;;;;;17.05;9.00;;;1.10;99.90;;;;;;5000285;28;20078;-74
2023/01/21 10:00:53;;;;;;;31.33;15.57;;;1.20;99.90;;;;;;4991580;28;20052;-74
2023/01/21 10:03:38;;;;;;;20.05;11.88;;;1.30;99.90;;;;;;5006310;28;20050;-71
2023/01/21 10:06:39;;;;;;;39.95;18.17;;;1.40;99.90;;;;;;5005035;28;20143;-72
2023/01/21 10:09:28;;;;;;;22.38;11.13;;;1.50;99.90;;;;;;4987572;28;20056;-72
2023/01/21 10:12:17;;;;;;;30.58;11.43;;;1.60;99.90;;;;;;5007954;28;20045;-72
2023/01/21 10:15:19;;;;;;;22.70;10.10;;;1.60;99.90;;;;;;5002520;28;20050;-74
2023/01/21 10:17:55;;;;;;;18.60;9.23;;;1.60;99.90;;;;;;4985765;28;20050;-74
2023/01/21 10:20:30;;;;;;;21.05;10.00;;;1.70;99.90;;;;;;5002945;28;20065;-73
2023/01/21 10:23:12;;;;;;;28.05;11.05;;;1.80;99.90;;;;;;4994283;28;20060;-72
2023/01/21 10:25:39;;;;;;;20.40;10.55;;;1.80;99.90;;;;;;4987476;28;20132;-73
2023/01/21 10:28:11;;;;;;;28.63;10.57;;;1.90;99.90;;;;;;4991954;28;20443;-73
2023/01/21 10:30:41;;;;;;;23.80;11.98;;;2.00;99.90;;;;;;5004971;28;20057;-73
2023/01/21 10:33:27;;;;;;;21.02;10.60;;;2.00;99.90;;;;;;5003547;28;20473;-73
2023/01/21 10:36:12;;;;;;;27.80;9.60;;;2.10;99.90;;;;;;5008195;28;20133;-74
2023/01/21 10:38:48;;;;;;;24.58;12.27;;;2.10;99.90;;;;;;4997516;28;20050;-73
2023/01/21 10:41:29;;;;;;;25.15;11.85;;;2.20;99.90;;;;;;4989075;28;20054;-73
2023/01/21 10:44:02;;;;;;;22.73;12.27;;;2.30;99.90;;;;;;5002673;28;20080;-73
2023/01/21 10:47:01;;;;;;;23.38;12.25;;;2.30;99.90;;;;;;5005570;28;20077;-73
2023/01/21 10:49:47;;;;;;;20.17;10.43;;;2.30;99.90;;;;;;4953991;28;20049;-72
2023/01/21 10:52:25;;;;;;;26.05;11.73;;;2.40;99.90;;;;;;5006367;28;20069;-73
2023/01/21 10:55:01;;;;;;;22.27;11.07;;;2.50;99.90;;;;;;5001589;28;20543;-73
2023/01/21 10:57:39;;;;;;;25.48;12.15;;;2.50;99.90;;;;;;5005079;28;20060;-72
2023/01/21 11:00:19;;;;;;;24.75;11.85;;;2.60;99.90;;;;;;5002269;28;20056;-71
2023/01/21 11:02:49;;;;;;;25.92;11.60;;;2.60;99.90;;;;;;5003753;28;20081;-73
2023/01/21 11:05:16;;;;;;;23.80;11.15;;;2.70;99.90;;;;;;5003721;28;20074;-74
2023/01/21 11:07:43;;;;;;;22.42;11.90;;;2.70;99.90;;;;;;5004959;28;20428;-73
2023/01/21 11:10:16;;;;;;;25.73;12.00;;;2.80;99.90;;;;;;5009644;28;20367;-73
2023/01/21 11:12:43;;;;;;;34.50;12.25;;;2.90;99.90;;;;;;5007185;28;20069;-73
2023/01/21 11:15:15;;;;;;;34.38;13.48;;;2.90;99.90;;;;;;4995445;28;20047;-73
2023/01/21 11:17:44;;;;;;;24.23;13.07;;;3.00;99.90;;;;;;5007281;28;20089;-75
2023/01/21 11:20:39;;;;;;;27.17;11.13;;;3.00;99.90;;;;;;5005372;28;20073;-73
2023/01/21 11:23:21;;;;;;;25.05;10.55;;;3.20;99.90;;;;;;5005186;28;20050;-72
2023/01/21 11:25:48;;;;;;;17.73;9.85;;;3.20;99.90;;;;;;5004727;28;20085;-73
2023/01/21 11:28:23;;;;;;;20.30;9.95;;;3.20;99.90;;;;;;4987754;28;20050;-74
2023/01/21 11:30:50;;;;;;;22.50;11.52;;;3.30;99.90;;;;;;5004917;28;20100;-74
2023/01/21 11:33:25;;;;;;;24.52;10.15;;;3.30;99.90;;;;;;5003872;28;20053;-74
2023/01/21 11:35:52;;;;;;;18.00;9.57;;;3.40;99.90;;;;;;4991297;28;20054;-75
2023/01/21 11:38:22;;;;;;;21.38;9.02;;;3.40;99.90;;;;;;4994465;28;20049;-75
2023/01/21 11:41:02;;;;;;;18.75;9.52;;;3.40;99.90;;;;;;5002228;28;20057;-73
2023/01/21 11:43:34;;;;;;;21.63;10.05;;;3.50;99.90;;;;;;4998459;28;20060;-72
2023/01/21 11:46:21;;;;;;;19.42;9.60;;;3.60;99.90;;;;;;4997381;28;20050;-73
2023/01/21 11:48:48;;;;;;;17.85;9.95;;;3.60;99.90;;;;;;5000430;28;20058;-73
2023/01/21 11:51:16;;;;;;;23.08;10.13;;;3.60;99.90;;;;;;5000874;28;20149;-73
2023/01/21 11:53:45;;;;;;;22.90;10.13;;;3.70;99.90;;;;;;5002557;28;20077;-73
2023/01/21 11:56:13;;;;;;;26.10;10.93;;;3.60;99.90;;;;;;5000885;28;20053;-73
2023/01/21 11:58:40;;;;;;;22.90;10.68;;;3.70;99.90;;;;;;4985150;28;20046;-73
2023/01/21 12:01:20;;;;;;;20.92;10.68;;;3.80;99.90;;;;;;5005495;28;20141;-73
2023/01/21 12:03:54;;;;;;;19.63;9.43;;;3.80;99.90;;;;;;5003761;28;20057;-73
2023/01/21 12:06:29;;;;;;;20.13;9.93;;;3.90;99.90;;;;;;4990105;28;20077;-72
2023/01/21 12:08:59;;;;;;;29.20;9.90;;;3.90;99.90;;;;;;5008436;28;20054;-73
2023/01/21 12:11:26;;;;;;;20.40;11.23;;;3.90;99.90;;;;;;5002287;28;20049;-75
2023/01/21 12:14:10;;;;;;;22.55;9.63;;;4.00;99.90;;;;;;5019699;28;20058;-76
2023/01/21 12:16:44;;;;;;;27.15;10.45;;;4.10;99.90;;;;;;5013039;28;20053;-75
2023/01/21 12:19:22;;;;;;;22.27;9.45;;;4.20;99.90;;;;;;4986811;28;20054;-74
2023/01/21 12:21:52;;;;;;;21.15;11.43;;;4.10;99.90;;;;;;4998459;28;20081;-75
2023/01/21 12:24:25;;;;;;;18.40;8.73;;;4.10;99.90;;;;;;5004410;28;20056;-75
2023/01/21 12:27:17;;;;;;;22.63;9.32;;;4.10;99.90;;;;;;5000132;28;20076;-73
2023/01/21 12:30:17;;;;;;;26.20;10.13;;;4.10;99.90;;;;;;5002116;28;20084;-72
2023/01/21 12:32:55;;;;;;;18.33;8.27;;;4.10;99.90;;;;;;5001036;28;20049;-71
2023/01/21 12:35:29;;;;;;;15.50;8.88;;;4.20;99.90;;;;;;5002773;28;20574;-71
2023/01/21 12:38:06;;;;;;;22.48;9.68;;;4.30;99.90;;;;;;5001420;28;20073;-73
2023/01/21 12:40:35;;;;;;;16.70;8.52;;;4.30;99.90;;;;;;5003947;28;20069;-74
2023/01/21 12:43:12;;;;;;;23.17;8.38;;;4.30;99.90;;;;;;4999235;28;20153;-73
2023/01/21 12:45:58;;;;;;;15.25;9.38;;;4.40;99.90;;;;;;5004900;28;20535;-74
2023/01/21 12:48:50;;;;;;;19.25;8.48;;;4.40;99.90;;;;;;4997816;28;20070;-75
2023/01/21 12:51:25;;;;;;;23.08;9.68;;;4.40;99.90;;;;;;5000855;28;20061;-73
2023/01/21 12:54:19;;;;;;;16.38;8.55;;;4.50;99.90;;;;;;5003397;28;20115;-74
2023/01/21 12:57:17;;;;;;;13.68;7.80;;;4.50;99.90;;;;;;4991320;28;20104;-74
2023/01/21 12:59:49;;;;;;;19.25;9.43;;;4.60;99.90;;;;;;5005480;28;20061;-74
2023/01/21 13:02:19;;;;;;;22.85;7.75;;;4.60;99.90;;;;;;5003642;28;20485;-73
2023/01/21 13:04:58;;;;;;;19.17;9.07;;;4.60;99.90;;;;;;4994156;28;20050;-74
2023/01/21 13:07:52;;;;;;;21.40;8.05;;;4.70;99.90;;;;;;4986783;28;20042;-74
2023/01/21 13:10:31;;;;;;;16.38;6.95;;;4.80;99.90;;;;;;5004505;28;20057;-75